createdAt,value
2023-01-01T00:02:11.294Z,86.00
2023-01-01T00:07:13.439Z,86.20
2023-01-01T00:12:15.673Z,86.30
2023-01-01T00:17:18.001Z,86.40
2023-01-01T00:22:54.078Z,86.40
2023-01-01T00:27:43.159Z,86.30
2023-01-01T00:32:56.142Z,86.20
2023-01-01T00:38:01.376Z,86.20
2023-01-01T00:43:03.489Z,86.30
2023-01-01T00:48:05.850Z,85.90
2023-01-01T00:53:08.037Z,86.00
2023-01-01T00:58:11.087Z,85.50
2023-01-01T01:03:28.167Z,85.00
2023-01-01T01:08:34.052Z,85.20
2023-01-01T01:13:36.893Z,85.60
2023-01-01T01:18:39.292Z,85.80
2023-01-01T01:23:41.549Z,86.20
2023-01-01T01:28:49.274Z,86.20
2023-01-01T01:33:52.129Z,85.50
2023-01-01T01:38:56.446Z,85.20
2023-01-01T01:44:49.364Z,84.50
2023-01-01T01:50:01.500Z,83.40
2023-01-01T01:55:08.037Z,84.10
2023-01-01T02:00:11.869Z,83.40
2023-01-01T02:05:14.440Z,84.70
2023-01-01T02:10:16.722Z,86.00
2023-01-01T02:15:19.486Z,85.90
2023-01-01T02:20:45.984Z,84.00
2023-01-01T02:26:38.815Z,84.40
2023-01-01T02:31:50.688Z,83.80
2023-01-01T02:36:59.370Z,82.70
2023-01-01T02:42:05.982Z,82.00
2023-01-01T02:47:18.378Z,83.60
2023-01-01T02:53:03.195Z,84.00
2023-01-01T02:59:03.064Z,84.90
2023-01-01T03:04:29.412Z,84.30
2023-01-01T03:09:51.756Z,83.70
2023-01-01T03:15:12.426Z,82.90
2023-01-01T03:20:23.495Z,82.70
2023-01-01T03:25:31.573Z,83.50
2023-01-01T03:30:38.182Z,84.00
2023-01-01T03:36:23.539Z,83.20
2023-01-01T03:41:37.805Z,84.20
2023-01-01T03:46:40.384Z,84.80
2023-01-01T03:52:14.813Z,84.60
2023-01-01T03:57:42.654Z,84.10
2023-01-01T04:03:01.053Z,87.50
2023-01-01T04:08:04.693Z,91.00
2023-01-01T04:13:07.059Z,89.00
2023-01-01T04:18:09.333Z,89.40
2023-01-01T04:23:11.339Z,91.00
2023-01-01T04:28:13.362Z,89.70
2023-01-01T04:33:15.681Z,89.40
2023-01-01T04:38:17.706Z,88.30
2023-01-01T04:43:19.742Z,87.40
2023-01-01T04:48:21.977Z,86.60
2023-01-01T04:53:24.799Z,86.40
2023-01-01T04:58:28.441Z,86.60
2023-01-01T05:03:30.836Z,86.80
2023-01-01T05:08:36.576Z,86.10
2023-01-01T05:13:42.486Z,86.40
2023-01-01T05:18:46.090Z,86.20
2023-01-01T05:23:49.457Z,87.00
2023-01-01T05:28:51.773Z,87.30
2023-01-01T05:33:54.883Z,87.80
2023-01-01T05:38:58.867Z,88.10
2023-01-01T05:44:03.874Z,87.60
2023-01-01T05:49:05.980Z,87.50
2023-01-01T05:59:12.140Z,87.70
2023-01-01T06:04:14.706Z,87.60
2023-01-01T06:09:16.803Z,87.80
2023-01-01T06:14:18.829Z,88.30
2023-01-01T06:19:20.902Z,88.50
2023-01-01T06:24:22.962Z,88.80
2023-01-01T06:29:25.053Z,88.90
2023-01-01T06:34:27.515Z,89.30
2023-01-01T06:39:29.640Z,89.50
2023-01-01T06:44:31.865Z,90.00
2023-01-01T06:49:34.009Z,90.00
2023-01-01T06:54:35.992Z,90.00
2023-01-01T06:59:37.974Z,89.80
2023-01-01T07:04:40.006Z,90.00
2023-01-01T07:09:42.354Z,90.10
2023-01-01T07:14:44.411Z,89.90
2023-01-01T07:19:46.452Z,89.60
2023-01-01T07:24:49.111Z,89.50
2023-01-01T07:29:51.103Z,89.30
2023-01-01T07:34:53.169Z,89.10
2023-01-01T07:39:55.427Z,88.70
2023-01-01T07:44:57.819Z,89.00
2023-01-01T07:50:02.897Z,88.50
2023-01-01T07:55:05.343Z,87.70
2023-01-01T08:00:09.198Z,90.90
2023-01-01T08:05:14.556Z,85.20
2023-01-01T08:10:20.240Z,84.50
2023-01-01T08:15:22.261Z,84.40
2023-01-01T08:20:24.674Z,84.70
2023-01-01T08:25:27.054Z,85.00
2023-01-01T08:30:29.786Z,84.80
2023-01-01T08:35:31.819Z,84.60
2023-01-01T08:40:37.658Z,84.30
2023-01-01T08:45:39.801Z,84.80
2023-01-01T08:50:41.854Z,84.40
2023-01-01T08:55:45.216Z,84.50
2023-01-01T09:00:47.278Z,84.10
2023-01-01T09:05:49.385Z,82.80
2023-01-01T09:10:52.797Z,81.90
2023-01-01T09:15:55.476Z,81.20
2023-01-01T09:20:58.059Z,79.70
2023-01-01T09:26:09.140Z,79.50
2023-01-01T09:31:11.186Z,79.40
2023-01-01T09:36:18.978Z,78.80
2023-01-01T09:41:46.310Z,78.20
2023-01-01T09:46:49.121Z,77.40
2023-01-01T09:51:58.663Z,76.20
2023-01-01T09:57:06.691Z,77.50
2023-01-01T10:02:37.419Z,76.40
2023-01-01T10:07:58.268Z,76.00
2023-01-01T10:13:18.357Z,75.60
2023-01-01T10:18:28.235Z,74.40
2023-01-01T11:51:35.274Z,77.80
2023-01-01T11:56:40.087Z,54.90
2023-01-01T12:02:03.536Z,54.30
2023-01-01T12:07:17.172Z,52.60
2023-01-01T12:12:31.068Z,52.00
2023-01-01T12:17:44.089Z,50.00
2023-01-01T12:22:46.111Z,49.50
2023-01-01T15:31:01.020Z,48.00
2023-01-01T15:36:04.460Z,77.50
2023-01-01T15:41:46.463Z,78.00
2023-01-01T15:46:53.716Z,77.50
2023-01-01T15:52:06.581Z,78.50
2023-01-01T15:57:24.273Z,78.60
2023-01-01T16:02:33.873Z,78.20
2023-01-01T16:07:36.108Z,76.00
2023-01-01T16:12:38.192Z,74.60
2023-01-01T16:17:40.444Z,74.60
2023-01-01T16:22:43.361Z,74.50
2023-01-01T16:27:46.146Z,74.70
2023-01-01T16:32:49.310Z,73.90
2023-01-01T16:37:51.665Z,74.30
2023-01-01T16:42:53.873Z,74.10
2023-01-01T16:47:56.197Z,76.10
2023-01-01T16:52:58.791Z,75.00
2023-01-01T16:58:38.180Z,77.20
2023-01-01T17:03:23.148Z,76.60
2023-01-01T17:08:25.304Z,76.20
2023-01-01T17:13:27.590Z,76.10
2023-01-01T17:18:55.066Z,76.40
2023-01-01T17:23:53.463Z,76.20
2023-01-01T17:29:00.684Z,76.80
2023-01-01T17:34:04.279Z,76.00
2023-01-01T17:39:07.105Z,76.20
2023-01-01T17:44:11.248Z,76.30
2023-01-01T17:49:13.444Z,77.10
2023-01-01T17:54:15.795Z,76.80
2023-01-01T17:59:18.285Z,77.60
2023-01-01T18:04:20.913Z,78.30
2023-01-01T18:09:23.088Z,78.60
2023-01-01T18:14:25.571Z,78.50
2023-01-01T18:19:28.376Z,78.90
2023-01-01T18:24:30.718Z,79.10
2023-01-01T18:29:32.788Z,78.70
2023-01-01T18:34:34.884Z,78.30
2023-01-01T18:39:41.911Z,78.60
2023-01-01T18:44:44.388Z,76.80
2023-01-01T18:49:53.602Z,77.20
2023-01-01T18:55:14.460Z,77.00
2023-01-01T19:00:19.625Z,76.30
2023-01-01T19:05:27.577Z,76.20
2023-01-01T19:10:49.090Z,74.90
2023-01-01T19:16:02.896Z,74.60
2023-01-01T19:21:11.468Z,73.10
2023-01-01T19:26:24.304Z,72.80
2023-01-01T19:31:26.652Z,70.80
2023-01-01T19:36:29.279Z,70.00
2023-01-01T19:41:31.553Z,69.60
2023-01-01T19:46:33.897Z,69.10
2023-01-01T19:51:35.966Z,68.80
2023-01-01T19:56:37.997Z,68.80
2023-01-01T20:01:40.211Z,69.90
2023-01-01T20:06:42.539Z,70.00
2023-01-01T20:11:47.071Z,69.50
2023-01-01T20:16:53.512Z,69.50
2023-01-01T20:22:14.410Z,69.10
2023-01-01T20:27:18.121Z,69.30
2023-01-01T20:32:21.214Z,69.70
2023-01-01T20:37:38.811Z,69.80
2023-01-01T20:42:40.886Z,70.00
2023-01-01T20:47:42.989Z,71.10
2023-01-01T20:52:45.183Z,69.70
2023-01-01T20:57:47.277Z,70.00
2023-01-01T21:02:49.423Z,69.60
2023-01-01T21:07:51.509Z,69.30
2023-01-01T21:12:53.584Z,69.00
2023-01-01T21:17:55.882Z,68.50
2023-01-01T21:23:00.612Z,68.20
2023-01-01T21:28:02.731Z,67.70
2023-01-01T21:33:17.298Z,67.50
2023-01-01T21:38:28.199Z,67.00
2023-01-01T21:43:50.174Z,66.80
2023-01-01T21:49:13.144Z,66.80
2023-01-01T21:54:37.989Z,65.70
2023-01-01T21:59:47.239Z,65.50
2023-01-01T22:04:51.164Z,64.80
2023-01-01T22:09:57.065Z,64.60
2023-01-01T22:15:29.136Z,63.20
2023-01-01T22:20:37.178Z,63.60
2023-01-01T22:25:39.337Z,63.60
2023-01-01T22:30:43.926Z,63.20
2023-01-01T22:35:46.316Z,63.50
2023-01-01T22:40:51.861Z,63.00
2023-01-01T22:45:54.559Z,62.60
2023-01-01T22:51:02.682Z,62.80
2023-01-01T22:56:05.273Z,62.50
2023-01-01T23:01:07.738Z,62.90
2023-01-01T23:06:09.958Z,62.50
2023-01-01T23:11:12.131Z,62.30
2023-01-01T23:16:14.304Z,62.30
2023-01-01T23:21:27.138Z,62.40
2023-01-01T23:26:29.746Z,62.40
2023-01-01T23:31:33.780Z,62.10
2023-01-01T23:36:37.718Z,62.00
2023-01-01T23:41:39.769Z,61.80
2023-01-01T23:46:41.946Z,61.60
2023-01-01T23:51:44.468Z,61.30
2023-01-01T23:56:46.554Z,61.60
